createdAt,value
2022-11-29T00:01:21.233Z,16.73
2022-11-29T00:03:49.189Z,16.53
2022-11-29T00:06:20.195Z,16.23
2022-11-29T00:08:48.322Z,19.43
2022-11-29T00:11:38.133Z,17.97
2022-11-29T00:14:06.573Z,16.87
2022-11-29T00:16:34.482Z,17.83
2022-11-29T00:19:02.868Z,19.33
2022-11-29T00:21:31.959Z,18.23
2022-11-29T00:23:59.752Z,18.10
2022-11-29T00:26:27.508Z,18.70
2022-11-29T00:28:55.785Z,20.33
2022-11-29T00:31:26.111Z,18.47
2022-11-29T00:33:54.193Z,17.23
2022-11-29T00:36:21.968Z,18.83
2022-11-29T00:38:51.192Z,20.47
2022-11-29T00:41:18.994Z,17.93
2022-11-29T00:43:46.933Z,19.87
2022-11-29T00:46:14.733Z,19.87
2022-11-29T00:48:42.572Z,18.43
2022-11-29T00:51:10.833Z,18.67
2022-11-29T00:53:38.900Z,15.13
2022-11-29T00:56:09.181Z,20.63
2022-11-29T00:58:37.445Z,17.33
2022-11-29T01:01:05.715Z,18.37
2022-11-29T01:03:33.743Z,19.00
2022-11-29T01:06:02.277Z,17.97
2022-11-29T01:08:30.241Z,16.70
2022-11-29T01:11:06.309Z,19.77
2022-11-29T01:13:36.034Z,17.47
2022-11-29T01:16:04.894Z,18.03
2022-11-29T01:18:33.273Z,15.83
2022-11-29T01:21:02.937Z,17.00
2022-11-29T01:23:31.203Z,17.50
2022-11-29T01:26:00.839Z,16.93
2022-11-29T01:28:29.389Z,20.50
2022-11-29T01:30:58.565Z,17.70
2022-11-29T01:33:26.426Z,17.90
2022-11-29T01:35:55.588Z,17.00
2022-11-29T01:38:24.233Z,17.20
2022-11-29T01:40:59.927Z,18.00
2022-11-29T01:43:27.868Z,16.07
2022-11-29T01:45:56.041Z,18.53
2022-11-29T01:48:26.755Z,18.27
2022-11-29T01:50:55.496Z,16.50
2022-11-29T01:53:23.332Z,16.77
2022-11-29T01:55:54.286Z,14.10
2022-11-29T01:58:22.585Z,12.07
2022-11-29T02:00:50.655Z,12.47
2022-11-29T02:03:19.268Z,12.20
2022-11-29T02:05:50.365Z,10.50
2022-11-29T02:08:22.878Z,12.00
2022-11-29T02:11:01.798Z,13.83
2022-11-29T02:13:34.935Z,11.07
2022-11-29T02:16:07.323Z,13.30
2022-11-29T02:18:43.932Z,14.97
2022-11-29T02:21:30.675Z,13.93
2022-11-29T02:24:12.634Z,12.23
2022-11-29T02:27:00.051Z,16.83
2022-11-29T02:29:39.307Z,15.50
2022-11-29T02:32:49.999Z,18.93
2022-11-29T02:35:31.626Z,19.13
2022-11-29T02:38:18.135Z,17.70
2022-11-29T02:41:22.288Z,21.47
2022-11-29T02:44:05.366Z,22.00
2022-11-29T02:46:48.985Z,18.23
2022-11-29T02:49:28.167Z,16.73
2022-11-29T02:52:00.233Z,17.87
2022-11-29T02:54:31.508Z,16.80
2022-11-29T02:57:02.571Z,18.17
2022-11-29T02:59:43.919Z,17.73
2022-11-29T03:02:19.496Z,18.57
2022-11-29T03:04:51.770Z,16.37
2022-11-29T03:07:25.935Z,14.33
2022-11-29T03:09:57.568Z,14.13
2022-11-29T03:12:30.509Z,15.53
2022-11-29T03:15:02.950Z,14.33
2022-11-29T03:17:35.344Z,15.07
2022-11-29T03:20:23.226Z,15.93
2022-11-29T03:23:04.200Z,14.80
2022-11-29T03:25:37.361Z,15.53
2022-11-29T03:28:08.479Z,15.33
2022-11-29T03:30:38.299Z,16.30
2022-11-29T03:33:10.152Z,17.20
2022-11-29T03:35:43.688Z,17.60
2022-11-29T03:38:18.154Z,17.20
2022-11-29T03:40:50.454Z,22.90
2022-11-29T03:43:22.353Z,20.03
2022-11-29T03:45:55.089Z,26.00
2022-11-29T03:48:29.115Z,24.20
2022-11-29T03:51:01.304Z,27.30
2022-11-29T03:53:34.265Z,26.57
2022-11-29T03:56:03.833Z,26.77
2022-11-29T03:58:40.286Z,28.27
2022-11-29T04:01:29.764Z,27.43
2022-11-29T04:04:13.808Z,25.17
2022-11-29T04:06:52.311Z,31.27
2022-11-29T04:09:36.242Z,31.47
2022-11-29T04:12:36.498Z,31.50
2022-11-29T04:15:27.550Z,32.53
2022-11-29T04:18:29.260Z,27.93
2022-11-29T04:21:20.457Z,33.27
2022-11-29T04:24:00.587Z,38.80
2022-11-29T04:27:00.095Z,35.17
2022-11-29T04:29:49.843Z,32.63
2022-11-29T04:32:37.410Z,31.67
2022-11-29T04:35:19.689Z,31.80
2022-11-29T04:38:21.053Z,34.17
2022-11-29T04:41:01.780Z,35.37
2022-11-29T04:43:43.274Z,32.87
2022-11-29T04:46:29.692Z,36.10
2022-11-29T04:49:11.142Z,28.13
2022-11-29T04:54:42.538Z,34.30
2022-11-29T04:57:14.055Z,36.13
2022-11-29T04:59:46.020Z,31.13
2022-11-29T05:02:23.713Z,34.33
2022-11-29T05:04:57.071Z,29.30
2022-11-29T05:07:30.777Z,28.47
2022-11-29T05:10:06.908Z,26.63
2022-11-29T05:12:40.779Z,26.77
2022-11-29T05:15:33.554Z,27.27
2022-11-29T05:18:07.835Z,27.73
2022-11-29T05:20:41.687Z,26.07
2022-11-29T05:23:24.210Z,34.87
2022-11-29T05:25:57.521Z,27.00
2022-11-29T05:28:34.820Z,30.70
2022-11-29T05:31:15.650Z,24.33
2022-11-29T05:34:18.668Z,32.07
2022-11-29T05:36:52.317Z,23.50
2022-11-29T05:39:37.412Z,23.90
2022-11-29T05:42:17.920Z,25.77
2022-11-29T05:44:47.456Z,26.13
2022-11-29T05:47:21.060Z,24.07
2022-11-29T05:49:56.895Z,21.53
2022-11-29T05:52:26.291Z,26.37
2022-11-29T05:55:18.185Z,30.60
2022-11-29T05:57:52.717Z,25.03
2022-11-29T06:00:21.383Z,27.83
2022-11-29T06:02:55.327Z,33.03
2022-11-29T06:05:27.052Z,41.30
2022-11-29T06:07:57.608Z,37.73
2022-11-29T06:10:28.424Z,37.03
2022-11-29T06:13:07.668Z,37.33
2022-11-29T06:15:59.077Z,34.30
2022-11-29T06:18:47.689Z,39.27
2022-11-29T06:21:22.593Z,41.83
2022-11-29T06:24:01.497Z,34.07
2022-11-29T06:26:46.091Z,33.97
2022-11-29T06:29:25.216Z,36.73
2022-11-29T06:31:56.272Z,35.77
2022-11-29T06:34:31.094Z,33.00
2022-11-29T06:37:03.541Z,37.60
2022-11-29T06:39:32.039Z,38.63
2022-11-29T06:41:59.750Z,37.97
2022-11-29T06:44:29.548Z,38.00
2022-11-29T06:47:02.017Z,34.20
2022-11-29T06:49:31.973Z,40.27
2022-11-29T06:52:08.011Z,42.70
2022-11-29T06:54:50.990Z,33.20
2022-11-29T06:57:23.403Z,34.37
2022-11-29T07:00:01.526Z,37.50
2022-11-29T07:02:39.655Z,36.93
2022-11-29T07:05:15.280Z,30.73
2022-11-29T07:07:43.508Z,33.47
2022-11-29T07:10:17.077Z,37.83
2022-11-29T07:12:45.766Z,35.70
2022-11-29T07:15:19.970Z,42.10
2022-11-29T07:17:59.899Z,41.43
2022-11-29T07:20:31.832Z,42.93
2022-11-29T07:23:04.277Z,46.80
2022-11-29T07:25:40.008Z,36.90
2022-11-29T07:28:18.635Z,47.97
2022-11-29T07:30:53.469Z,45.10
2022-11-29T07:33:25.009Z,43.93
2022-11-29T07:35:57.816Z,40.27
2022-11-29T07:38:30.627Z,38.07
2022-11-29T07:41:01.365Z,36.03
2022-11-29T07:43:40.132Z,38.40
2022-11-29T07:46:09.344Z,34.27
2022-11-29T07:48:37.158Z,44.43
2022-11-29T07:51:05.093Z,32.80
2022-11-29T07:54:04.707Z,27.00
2022-11-29T07:56:32.717Z,35.67
2022-11-29T07:59:00.530Z,35.33
2022-11-29T08:01:29.793Z,28.77
2022-11-29T08:03:57.614Z,27.60
2022-11-29T08:06:26.426Z,28.13
2022-11-29T08:08:54.162Z,35.10
2022-11-29T08:11:21.936Z,31.33
2022-11-29T08:13:49.740Z,22.70
2022-11-29T08:16:18.580Z,28.20
2022-11-29T08:18:48.414Z,33.77
2022-11-29T08:21:18.020Z,30.53
2022-11-29T08:23:45.824Z,25.30
2022-11-29T08:26:13.966Z,29.63
2022-11-29T08:28:41.745Z,29.03
2022-11-29T08:31:12.053Z,29.07
2022-11-29T08:33:42.686Z,27.20
2022-11-29T08:36:13.683Z,24.57
2022-11-29T08:38:41.489Z,30.60
2022-11-29T08:41:12.022Z,29.07
2022-11-29T08:43:39.947Z,31.30
2022-11-29T08:46:07.820Z,23.20
2022-11-29T08:48:36.892Z,24.83
2022-11-29T08:51:06.057Z,25.73
2022-11-29T08:53:46.079Z,26.40
2022-11-29T08:57:04.339Z,28.93
2022-11-29T08:59:03.176Z,22.67
2022-11-29T09:01:31.073Z,23.03
2022-11-29T09:04:02.820Z,27.63
2022-11-29T09:06:31.980Z,21.37
2022-11-29T09:09:01.922Z,24.30
2022-11-29T09:11:30.820Z,24.30
2022-11-29T09:14:00.141Z,28.43
2022-11-29T09:16:29.716Z,26.83
2022-11-29T09:18:57.668Z,26.83
2022-11-29T09:21:26.794Z,23.40
2022-11-29T09:23:58.762Z,27.27
2022-11-29T09:26:30.046Z,21.20
2022-11-29T09:29:01.122Z,21.73
2022-11-29T09:31:29.463Z,22.97
2022-11-29T09:33:57.719Z,25.67
2022-11-29T09:36:28.919Z,23.27
2022-11-29T09:38:57.506Z,29.70
2022-11-29T09:41:49.052Z,21.07
2022-11-29T09:44:21.070Z,22.93
2022-11-29T09:46:58.548Z,29.90
2022-11-29T09:49:44.506Z,27.80
2022-11-29T09:52:17.627Z,23.33
2022-11-29T09:54:49.972Z,24.43
2022-11-29T09:57:21.795Z,28.80
2022-11-29T09:59:50.977Z,27.37
2022-11-29T10:02:22.363Z,28.67
2022-11-29T10:04:54.072Z,24.73
2022-11-29T10:07:26.429Z,26.50
2022-11-29T10:09:56.516Z,25.37
2022-11-29T10:12:31.928Z,25.43
2022-11-29T10:15:04.742Z,29.00
2022-11-29T10:17:36.006Z,27.02
2022-11-29T10:20:07.890Z,23.47
2022-11-29T10:22:41.996Z,27.23
2022-11-29T10:25:11.393Z,23.63
2022-11-29T10:27:41.579Z,27.07
2022-11-29T10:30:15.138Z,30.03
2022-11-29T10:32:43.992Z,22.83
2022-11-29T10:35:14.850Z,30.70
2022-11-29T10:37:56.404Z,26.83
2022-11-29T10:40:34.804Z,27.77
2022-11-29T10:43:04.115Z,23.80
2022-11-29T10:45:34.072Z,20.80
2022-11-29T10:48:05.496Z,23.23
2022-11-29T10:50:35.417Z,22.63
2022-11-29T10:53:06.532Z,29.10
2022-11-29T10:55:37.939Z,17.47
2022-11-29T10:58:13.784Z,26.67
2022-11-29T11:00:46.615Z,26.97
2022-11-29T11:03:18.711Z,25.37
2022-11-29T11:05:59.018Z,27.85
2022-11-29T11:08:27.316Z,23.23
2022-11-29T11:11:01.217Z,23.58
2022-11-29T11:13:33.051Z,20.85
2022-11-29T11:16:10.030Z,22.02
2022-11-29T11:18:38.489Z,21.80
2022-11-29T11:21:09.833Z,22.98
2022-11-29T11:23:42.939Z,26.27
2022-11-29T11:26:13.138Z,29.08
2022-11-29T11:28:46.038Z,28.20
2022-11-29T11:31:14.635Z,29.50
2022-11-29T11:33:45.465Z,33.13
2022-11-29T11:36:14.984Z,29.88
2022-11-29T11:38:51.091Z,35.47
2022-11-29T11:41:22.494Z,35.08
2022-11-29T11:43:54.427Z,34.95
2022-11-29T11:46:22.645Z,36.88
2022-11-29T11:48:51.215Z,37.78
2022-11-29T11:51:24.026Z,34.42
2022-11-29T11:53:53.640Z,36.08
2022-11-29T11:56:21.790Z,36.03
2022-11-29T11:58:53.235Z,36.53
2022-11-29T12:01:37.826Z,40.60
2022-11-29T12:04:07.629Z,39.03
2022-11-29T12:06:43.296Z,35.53
2022-11-29T12:09:18.568Z,40.50
2022-11-29T12:11:52.514Z,36.95
2022-11-29T12:14:26.905Z,34.50
2022-11-29T12:17:03.730Z,34.22
2022-11-29T12:19:36.670Z,32.33
2022-11-29T12:22:08.341Z,31.77
2022-11-29T12:24:39.625Z,34.50
2022-11-29T12:27:11.002Z,32.75
2022-11-29T12:29:40.169Z,31.23
2022-11-29T12:32:18.591Z,30.90
2022-11-29T12:34:56.941Z,31.55
2022-11-29T12:37:32.227Z,33.75
2022-11-29T12:40:06.769Z,30.23
2022-11-29T12:42:45.802Z,28.20
2022-11-29T12:45:35.795Z,26.63
2022-11-29T12:48:11.952Z,27.60
2022-11-29T12:50:49.502Z,35.10
2022-11-29T12:53:29.161Z,25.10
2022-11-29T12:56:02.960Z,27.40
2022-11-29T12:58:41.273Z,27.98
2022-11-29T13:01:19.900Z,27.98
2022-11-29T13:03:53.481Z,25.42
2022-11-29T13:06:26.089Z,30.98
2022-11-29T13:09:03.644Z,27.75
2022-11-29T13:11:33.814Z,28.92
2022-11-29T13:14:34.839Z,30.98
2022-11-29T13:16:57.821Z,28.52
2022-11-29T13:19:33.058Z,30.75
2022-11-29T13:22:06.251Z,28.02
2022-11-29T13:24:42.518Z,33.50
2022-11-29T13:27:16.063Z,35.15
2022-11-29T13:29:44.268Z,40.65
2022-11-29T13:32:35.547Z,38.50
2022-11-29T13:35:08.489Z,35.55
2022-11-29T13:37:39.519Z,32.50
2022-11-29T13:40:22.952Z,39.97
2022-11-29T13:42:56.482Z,41.70
2022-11-29T13:45:27.914Z,36.40
2022-11-29T13:47:59.871Z,34.13
2022-11-29T13:50:39.867Z,32.67
2022-11-29T13:53:14.690Z,40.08
2022-11-29T13:55:47.212Z,41.08
2022-11-29T13:58:36.534Z,33.15
2022-11-29T14:01:08.352Z,48.05
2022-11-29T14:03:39.619Z,49.33
2022-11-29T14:06:15.493Z,39.75
2022-11-29T14:09:18.291Z,44.78
2022-11-29T14:11:50.044Z,45.28
2022-11-29T14:14:25.835Z,42.92
2022-11-29T14:16:56.029Z,39.23
2022-11-29T14:19:33.017Z,46.33
2022-11-29T14:22:28.677Z,39.72
2022-11-29T14:25:01.351Z,38.85
2022-11-29T14:27:56.213Z,42.58
2022-11-29T14:30:45.621Z,38.08
2022-11-29T14:33:22.743Z,41.70
2022-11-29T14:36:00.920Z,37.87
2022-11-29T14:38:31.627Z,39.20
2022-11-29T14:41:04.134Z,34.20
2022-11-29T14:43:34.300Z,34.10
2022-11-29T14:46:10.080Z,38.65
2022-11-29T14:48:38.205Z,38.08
2022-11-29T14:51:12.587Z,39.25
2022-11-29T14:53:42.144Z,42.77
2022-11-29T14:56:39.585Z,42.80
2022-11-29T14:59:38.947Z,41.37
2022-11-29T15:02:09.065Z,44.17
2022-11-29T15:04:38.019Z,45.67
2022-11-29T15:07:10.606Z,46.57
2022-11-29T15:09:39.599Z,48.03
2022-11-29T15:12:09.967Z,46.03
2022-11-29T15:14:46.934Z,43.27
2022-11-29T15:17:21.476Z,45.77
2022-11-29T15:20:07.559Z,53.47
2022-11-29T15:22:46.167Z,42.63
2022-11-29T15:25:18.118Z,55.73
2022-11-29T15:27:53.910Z,50.50
2022-11-29T15:30:28.811Z,65.78
2022-11-29T15:32:56.704Z,64.37
2022-11-29T15:35:24.640Z,49.13
2022-11-29T15:37:54.681Z,52.53
2022-11-29T15:40:24.710Z,59.83
2022-11-29T15:42:55.136Z,55.17
2022-11-29T15:45:28.952Z,46.50
2022-11-29T15:47:58.718Z,47.77
2022-11-29T15:50:27.581Z,45.33
2022-11-29T15:52:59.383Z,50.53
2022-11-29T15:55:28.544Z,57.17
2022-11-29T15:57:59.895Z,51.60
2022-11-29T16:00:32.834Z,51.97
2022-11-29T16:03:02.080Z,59.30
2022-11-29T16:05:32.972Z,49.33
2022-11-29T16:08:04.467Z,44.87
2022-11-29T16:10:37.024Z,58.77
2022-11-29T16:13:07.597Z,56.30
2022-11-29T16:15:37.618Z,52.27
2022-11-29T16:18:06.475Z,45.17
2022-11-29T16:20:34.384Z,54.17
2022-11-29T16:23:21.452Z,47.97
2022-11-29T16:25:57.524Z,49.97
2022-11-29T16:28:27.000Z,51.37
2022-11-29T16:30:54.856Z,46.93
2022-11-29T16:33:24.838Z,49.07
2022-11-29T16:35:53.028Z,55.10
2022-11-29T16:38:23.453Z,55.10
2022-11-29T16:41:06.351Z,53.63
2022-11-29T16:43:48.591Z,55.90
2022-11-29T16:46:30.078Z,53.53
2022-11-29T16:49:00.755Z,49.00
2022-11-29T16:51:37.313Z,49.93
2022-11-29T16:54:27.861Z,46.90
2022-11-29T16:56:57.228Z,57.37
2022-11-29T16:59:28.236Z,49.03
2022-11-29T17:01:57.143Z,51.00
2022-11-29T17:04:25.491Z,50.17
2022-11-29T17:06:53.995Z,47.83
2022-11-29T17:09:24.882Z,54.37
2022-11-29T17:11:54.333Z,48.03
2022-11-29T17:14:22.179Z,47.47
2022-11-29T17:16:50.439Z,47.20
2022-11-29T17:19:19.665Z,48.73
2022-11-29T17:21:47.535Z,40.67
2022-11-29T17:24:16.654Z,49.13
2022-11-29T17:26:45.002Z,45.73
2022-11-29T17:29:15.237Z,41.67
2022-11-29T17:31:44.620Z,37.70
2022-11-29T17:34:12.776Z,39.03
2022-11-29T17:36:40.559Z,40.83
2022-11-29T17:39:09.133Z,44.30
2022-11-29T17:41:36.911Z,36.67
2022-11-29T17:44:05.305Z,37.33
2022-11-29T17:46:35.870Z,38.93
2022-11-29T17:49:05.409Z,37.60
2022-11-29T17:54:22.303Z,43.60
2022-11-29T17:56:50.553Z,41.27
2022-11-29T17:59:18.470Z,43.57
2022-11-29T18:01:48.073Z,58.50
2022-11-29T18:04:16.124Z,41.53
2022-11-29T18:06:45.752Z,37.23
2022-11-29T18:09:13.838Z,39.47
2022-11-29T18:11:48.057Z,33.50
2022-11-29T18:14:17.994Z,36.17
2022-11-29T18:16:47.273Z,39.33
2022-11-29T18:19:17.595Z,35.90
2022-11-29T18:21:45.378Z,39.63
2022-11-29T18:24:13.424Z,40.67
2022-11-29T18:26:41.505Z,43.70
2022-11-29T18:29:09.912Z,43.70
2022-11-29T18:31:38.700Z,38.23
2022-11-29T18:34:09.909Z,41.47
2022-11-29T18:36:40.064Z,45.83
2022-11-29T18:39:09.981Z,46.37
2022-11-29T18:41:38.689Z,40.60
2022-11-29T18:44:07.928Z,35.70
2022-11-29T18:46:37.309Z,34.07
2022-11-29T18:49:08.118Z,42.43
2022-11-29T18:51:36.772Z,42.27
2022-11-29T18:54:05.079Z,43.80
2022-11-29T18:56:35.508Z,36.43
2022-11-29T18:59:05.624Z,41.43
2022-11-29T19:01:35.305Z,46.83
2022-11-29T19:04:03.301Z,41.53
2022-11-29T19:06:39.344Z,35.27
2022-11-29T19:09:09.802Z,37.53
2022-11-29T19:11:37.666Z,33.43
2022-11-29T19:14:11.081Z,35.63
2022-11-29T19:16:40.606Z,42.10
2022-11-29T19:19:08.465Z,41.47
2022-11-29T19:21:39.645Z,43.87
2022-11-29T19:24:13.612Z,43.73
2022-11-29T19:26:42.946Z,42.60
2022-11-29T19:29:11.015Z,43.13
2022-11-29T19:31:39.402Z,41.30
2022-11-29T19:34:07.390Z,42.83
2022-11-29T19:36:37.031Z,38.20
2022-11-29T19:39:06.253Z,37.03
2022-11-29T19:41:35.228Z,39.00
2022-11-29T19:44:05.085Z,37.27
2022-11-29T19:46:34.611Z,42.50
2022-11-29T19:49:03.332Z,36.83
2022-11-29T19:51:31.811Z,31.53
2022-11-29T19:54:00.877Z,39.73
2022-11-29T19:56:31.152Z,41.57
2022-11-29T19:58:59.788Z,39.67
2022-11-29T20:01:35.941Z,40.77
2022-11-29T20:04:07.576Z,35.30
2022-11-29T20:06:35.847Z,42.27
2022-11-29T20:09:04.020Z,41.47
2022-11-29T20:11:33.179Z,42.27
2022-11-29T20:14:02.819Z,39.17
2022-11-29T20:16:31.472Z,37.50
2022-11-29T20:18:59.874Z,34.20
2022-11-29T20:21:29.537Z,37.90
2022-11-29T20:23:58.918Z,39.60
2022-11-29T20:26:27.589Z,40.77
2022-11-29T20:28:56.706Z,41.93
2022-11-29T20:31:24.655Z,39.33
2022-11-29T20:33:53.931Z,45.40
2022-11-29T20:36:31.742Z,44.27
2022-11-29T20:39:04.936Z,46.27
2022-11-29T20:41:36.951Z,46.27
2022-11-29T20:44:06.588Z,46.93
2022-11-29T20:46:34.687Z,42.90
2022-11-29T20:49:06.720Z,52.53
2022-11-29T20:51:41.123Z,50.53
2022-11-29T20:54:10.861Z,53.20
2022-11-29T20:56:38.694Z,45.73
2022-11-29T20:59:07.767Z,53.60
2022-11-29T21:01:35.638Z,51.70
2022-11-29T21:04:03.479Z,47.43
2022-11-29T21:06:34.283Z,42.20
2022-11-29T21:09:02.132Z,45.47
2022-11-29T21:11:30.127Z,48.33
2022-11-29T21:13:58.297Z,49.00
2022-11-29T21:16:30.298Z,44.27
2022-11-29T21:19:01.191Z,41.00
2022-11-29T21:21:33.093Z,44.80
2022-11-29T21:24:04.668Z,42.83
2022-11-29T21:26:41.368Z,43.63
2022-11-29T21:29:16.216Z,43.43
2022-11-29T21:31:46.130Z,43.60
2022-11-29T21:34:14.286Z,42.20
2022-11-29T21:36:42.275Z,42.90
2022-11-29T21:39:12.640Z,44.43
2022-11-29T21:41:40.744Z,42.93
2022-11-29T21:44:08.871Z,42.13
2022-11-29T21:46:36.858Z,42.87
2022-11-29T21:49:06.443Z,49.23
2022-11-29T21:51:34.294Z,40.87
2022-11-29T21:54:02.591Z,45.37
2022-11-29T21:56:30.481Z,40.60
2022-11-29T21:58:58.257Z,40.83
2022-11-29T22:01:27.517Z,46.37
2022-11-29T22:03:55.506Z,47.37
2022-11-29T22:06:26.117Z,44.33
2022-11-29T22:08:53.989Z,38.07
2022-11-29T22:11:31.447Z,46.50
2022-11-29T22:14:15.578Z,42.40
2022-11-29T22:16:44.591Z,48.80
2022-11-29T22:19:14.022Z,46.93
2022-11-29T22:21:44.588Z,41.17
2022-11-29T22:24:13.315Z,41.83
2022-11-29T22:26:42.632Z,43.90
2022-11-29T22:29:11.443Z,44.63
2022-11-29T22:31:39.249Z,44.20
2022-11-29T22:34:07.167Z,47.27
2022-11-29T22:36:35.842Z,48.00
2022-11-29T22:39:05.712Z,43.80
2022-11-29T22:41:34.205Z,42.27
2022-11-29T22:44:02.052Z,41.37
2022-11-29T22:46:30.392Z,43.47
2022-11-29T22:49:00.438Z,42.87
2022-11-29T22:51:30.396Z,46.07
2022-11-29T22:53:59.377Z,40.77
2022-11-29T22:56:30.253Z,47.57
2022-11-29T22:58:59.029Z,47.63
2022-11-29T23:01:28.242Z,46.57
2022-11-29T23:03:57.895Z,40.27
2022-11-29T23:06:26.880Z,42.90
2022-11-29T23:08:56.232Z,52.93
2022-11-29T23:11:26.075Z,43.53
2022-11-29T23:13:56.236Z,49.10
2022-11-29T23:16:25.506Z,52.50
2022-11-29T23:18:54.281Z,50.13
2022-11-29T23:21:23.902Z,48.10
2022-11-29T23:23:56.391Z,49.77
2022-11-29T23:26:26.607Z,52.43
2022-11-29T23:28:56.191Z,41.97
2022-11-29T23:31:24.725Z,52.40
2022-11-29T23:33:52.771Z,55.77
2022-11-29T23:36:20.907Z,53.93
2022-11-29T23:38:48.977Z,54.10
2022-11-29T23:41:16.773Z,59.83
2022-11-29T23:43:44.567Z,58.20
2022-11-29T23:46:16.332Z,54.30
2022-11-29T23:48:44.742Z,53.13
2022-11-29T23:51:13.182Z,50.00
2022-11-29T23:53:41.183Z,55.23
2022-11-29T23:56:11.641Z,52.50
2022-11-29T23:58:39.430Z,59.73
